Time;durP1;ratioP1;P1;durP2;ratioP2;P2;SDS_P1;SDS_P2;PMS_P1;PMS_P2;Temp;Humidity;BMP_temperature;BMP_pressure;BME280_temperature;BME280_humidity;BME280_pressure;Samples;Min_cycle;Max_cycle;Signal;HPM_P1;HPM_P2
2023/04/20 00:01:15;;;;;;;;;;;8.20;99.90;;;;;;4970040;28;19913;-77
2023/04/20 00:03:42;;;;;;;;;;;8.20;99.90;;;;;;4980689;28;20270;-78
2023/04/20 00:06:09;;;;;;;;;;;8.20;99.90;;;;;;4965972;28;19906;-77
2023/04/20 00:08:47;;;;;;;;;;;8.20;99.90;;;;;;4984987;28;19906;-77
2023/04/20 00:11:12;;;;;;;;;;;8.20;99.90;;;;;;4968994;28;19910;-77
2023/04/20 00:13:43;;;;;;;;;;;8.30;99.90;;;;;;4983717;28;19924;-77
2023/04/20 00:16:08;;;;;;;;;;;8.30;99.90;;;;;;4966181;28;19906;-77
2023/04/20 00:18:37;;;;;;;;;;;8.30;99.90;;;;;;4974796;28;19928;-77
2023/04/20 00:21:05;;;;;;;;;;;8.30;99.90;;;;;;4990008;28;19905;-77
2023/04/20 00:23:31;;;;;;;;;;;8.30;99.90;;;;;;4992677;28;19906;-76
2023/04/20 00:25:57;;;;;;;;;;;8.30;99.90;;;;;;4969077;28;19916;-77
2023/04/20 00:28:24;;;;;;;;;;;8.30;99.90;;;;;;4969050;28;19906;-76
2023/04/20 00:30:54;;;;;;;;;;;8.30;99.90;;;;;;4986311;28;19917;-77
2023/04/20 00:33:20;;;;;;;;;;;8.20;99.90;;;;;;4972383;28;20276;-77
2023/04/20 00:35:55;;;;;;;;;;;7.90;99.90;;;;;;4965206;28;19913;-77
2023/04/20 00:38:23;;;;;;;;;;;7.90;99.90;;;;;;4974118;28;19909;-77
2023/04/20 00:41:00;;;;;;;;;;;7.80;99.90;;;;;;4986767;28;19921;-77
2023/04/20 00:43:34;;;;;;;;;;;7.80;99.90;;;;;;4987661;28;19932;-77
2023/04/20 00:46:02;;;;;;;;;;;7.60;99.90;;;;;;4971689;28;19906;-77
2023/04/20 00:48:30;;;;;;;;;;;7.50;99.90;;;;;;4973331;28;19905;-76
2023/04/20 00:50:56;;;;;;;;;;;7.40;99.90;;;;;;4970763;28;20697;-76
2023/04/20 00:53:23;;;;;;;;;;;7.30;99.90;;;;;;5000367;28;19960;-78
2023/04/20 00:55:50;;;;;;;;;;;7.30;99.90;;;;;;4988786;28;19918;-76
2023/04/20 00:58:15;;;;;;;;;;;7.10;99.90;;;;;;4973742;28;19914;-76
2023/04/20 01:00:41;;;;;;;;;;;7.10;99.90;;;;;;4991728;28;20398;-76
2023/04/20 01:03:07;;;;;;;;;;;7.10;99.90;;;;;;4971413;28;19944;-76
2023/04/20 01:05:32;;;;;;;;;;;7.10;99.90;;;;;;4977941;28;19945;-76
2023/04/20 01:07:58;;;;;;;;;;;7.10;99.90;;;;;;4991984;28;19971;-78
2023/04/20 01:10:24;;;;;;;;;;;7.10;99.90;;;;;;4982183;28;19914;-76
2023/04/20 01:12:49;;;;;;;;;;;7.10;99.90;;;;;;4989301;28;19914;-77
2023/04/20 01:15:15;;;;;;;;;;;7.10;99.90;;;;;;4973257;28;19921;-76
2023/04/20 01:17:42;;;;;;;;;;;7.10;99.90;;;;;;4987112;28;20267;-76
2023/04/20 01:20:10;;;;;;;;;;;7.10;99.90;;;;;;4977726;28;19913;-77
2023/04/20 01:22:43;;;;;;;;;;;7.10;99.90;;;;;;4964314;28;20387;-76
2023/04/20 01:25:08;;;;;;;;;;;7.10;99.90;;;;;;4966631;28;19909;-76
2023/04/20 01:27:34;;;;;;;;;;;7.20;99.90;;;;;;4963800;28;20291;-77
2023/04/20 01:30:02;;;;;;;;;;;7.30;99.90;;;;;;4967089;28;19914;-76
2023/04/20 01:32:28;;;;;;;;;;;7.30;99.90;;;;;;4968698;28;19910;-77
2023/04/20 01:34:56;;;;;;;;;;;7.30;99.90;;;;;;4983420;28;19909;-77
2023/04/20 01:37:25;;;;;;;;;;;7.30;99.90;;;;;;4964404;28;19906;-76
2023/04/20 01:39:58;;;;;;;;;;;7.40;99.90;;;;;;4982783;28;19905;-76
2023/04/20 01:42:24;;;;;;;;;;;7.40;99.90;;;;;;4985863;28;19910;-77
2023/04/20 01:44:49;;;;;;;;;;;7.40;99.90;;;;;;4964812;28;19920;-77
2023/04/20 01:47:17;;;;;;;;;;;7.40;99.90;;;;;;4982015;28;20758;-77
2023/04/20 01:49:42;;;;;;;;;;;7.40;99.90;;;;;;4969626;28;20000;-77
2023/04/20 01:52:15;;;;;;;;;;;7.40;99.90;;;;;;4971457;28;20000;-76
2023/04/20 01:54:42;;;;;;;;;;;7.50;99.90;;;;;;4990524;28;20004;-77
2023/04/20 01:57:15;;;;;;;;;;;7.40;99.90;;;;;;4969803;28;19913;-76
2023/04/20 01:59:51;;;;;;;;;;;7.40;99.90;;;;;;4973425;28;19906;-76
2023/04/20 02:02:18;;;;;;;;;;;7.40;99.90;;;;;;4985550;28;20184;-77
2023/04/20 02:04:46;;;;;;;;;;;7.40;99.90;;;;;;4965391;28;19937;-77
2023/04/20 02:07:15;;;;;;;;;;;7.40;99.90;;;;;;4964453;28;19905;-77
2023/04/20 02:09:44;;;;;;;;;;;7.40;99.90;;;;;;4965877;28;19909;-77
2023/04/20 02:12:15;;;;;;;;;;;7.40;99.90;;;;;;4970940;28;19932;-77
2023/04/20 02:14:42;;;;;;;;;;;7.40;99.90;;;;;;4970123;28;19913;-76
2023/04/20 02:17:11;;;;;;;;;;;7.40;99.90;;;;;;4975447;28;19909;-77
2023/04/20 02:19:40;;;;;;;;;;;7.30;99.90;;;;;;4972937;28;19913;-77
2023/04/20 02:22:06;;;;;;;;;;;7.30;99.90;;;;;;4991853;28;19909;-77
2023/04/20 02:24:34;;;;;;;;;;;7.20;99.90;;;;;;4972339;28;19913;-77
2023/04/20 02:27:00;;;;;;;;;;;7.10;99.90;;;;;;4985601;28;19907;-77
2023/04/20 02:29:25;;;;;;;;;;;7.10;99.90;;;;;;4973916;28;20339;-77
2023/04/20 02:31:52;;;;;;;;;;;7.10;99.90;;;;;;4968134;28;19905;-77
2023/04/20 02:34:24;;;;;;;;;;;7.10;99.90;;;;;;4966997;28;19959;-77
2023/04/20 02:36:52;;;;;;;;;;;7.10;99.90;;;;;;4966583;28;19968;-77
2023/04/20 02:39:19;;;;;;;;;;;7.20;99.90;;;;;;4985715;28;19963;-77
2023/04/20 02:41:49;;;;;;;;;;;7.20;99.90;;;;;;4968722;28;19914;-77
2023/04/20 02:44:14;;;;;;;;;;;7.20;99.90;;;;;;4967382;28;19913;-76
2023/04/20 02:46:42;;;;;;;;;;;7.20;99.90;;;;;;4989366;28;19906;-76
2023/04/20 02:49:10;;;;;;;;;;;7.20;99.90;;;;;;4971723;28;19905;-77
2023/04/20 02:51:36;;;;;;;;;;;7.20;99.90;;;;;;4967286;28;20019;-77
2023/04/20 02:54:02;;;;;;;;;;;7.20;99.90;;;;;;4984534;28;19937;-77
2023/04/20 02:56:28;;;;;;;;;;;7.10;99.90;;;;;;4973611;28;19910;-76
2023/04/20 02:58:54;;;;;;;;;;;7.10;99.90;;;;;;4971754;28;19912;-77
2023/04/20 03:01:19;;;;;;;;;;;7.00;99.90;;;;;;4987696;28;20339;-77
2023/04/20 03:03:47;;;;;;;;;;;6.90;99.90;;;;;;4988388;28;20371;-76
2023/04/20 03:06:13;;;;;;;;;;;6.90;99.90;;;;;;4972705;28;19906;-77
2023/04/20 03:08:45;;;;;;;;;;;6.90;99.90;;;;;;4974169;28;19905;-77
2023/04/20 03:11:14;;;;;;;;;;;6.90;99.90;;;;;;4971936;28;19910;-77
2023/04/20 03:13:40;;;;;;;;;;;6.80;99.90;;;;;;4972932;28;19921;-77
2023/04/20 03:16:06;;;;;;;;;;;6.80;99.90;;;;;;4964819;28;19975;-77
2023/04/20 03:18:33;;;;;;;;;;;6.70;99.90;;;;;;4989312;28;19933;-77
2023/04/20 03:21:04;;;;;;;;;;;6.60;99.90;;;;;;4988761;28;19906;-77
2023/04/20 03:23:31;;;;;;;;;;;6.50;99.90;;;;;;4985463;28;19914;-77
2023/04/20 03:25:57;;;;;;;;;;;6.50;99.90;;;;;;4996943;28;19909;-76
2023/04/20 03:28:37;;;;;;;;;;;6.40;99.90;;;;;;4975794;28;20121;-77
2023/04/20 03:31:05;;;;;;;;;;;6.30;99.90;;;;;;4975402;28;19910;-76
2023/04/20 03:33:31;;;;;;;;;;;6.30;99.90;;;;;;4988815;28;20251;-77
2023/04/20 03:35:59;;;;;;;;;;;6.20;99.90;;;;;;4977161;28;19916;-76
2023/04/20 03:38:25;;;;;;;;;;;6.20;99.90;;;;;;4968786;28;20270;-79
2023/04/20 03:40:53;;;;;;;;;;;6.20;99.90;;;;;;4976764;28;19956;-79
2023/04/20 03:43:18;;;;;;;;;;;6.20;99.90;;;;;;4988526;28;19963;-77
2023/04/20 03:45:45;;;;;;;;;;;6.20;99.90;;;;;;4985575;28;19918;-76
2023/04/20 03:48:17;;;;;;;;;;;6.10;99.90;;;;;;4972886;28;19916;-77
2023/04/20 03:50:43;;;;;;;;;;;6.10;99.90;;;;;;4990581;28;19914;-77
2023/04/20 03:53:14;;;;;;;;;;;6.10;99.90;;;;;;4973399;28;19916;-78
2023/04/20 03:55:40;;;;;;;;;;;6.00;99.90;;;;;;5001979;28;20663;-78
2023/04/20 03:58:10;;;;;;;;;;;6.00;99.90;;;;;;4987589;28;19905;-77
2023/04/20 04:00:40;;;;;;;;;;;6.00;99.90;;;;;;4974916;28;19906;-76
2023/04/20 04:03:12;;;;;;;;;;;6.00;99.90;;;;;;4993243;28;19906;-77
2023/04/20 04:05:37;;;;;;;;;;;6.00;99.90;;;;;;4977497;28;20011;-78
2023/04/20 04:08:06;;;;;;;;;;;6.10;99.90;;;;;;4972144;28;19905;-76
2023/04/20 04:10:34;;;;;;;;;;;6.10;99.90;;;;;;4992353;28;19909;-76
2023/04/20 04:13:02;;;;;;;;;;;6.20;99.90;;;;;;4976595;28;19910;-76
2023/04/20 04:15:39;;;;;;;;;;;6.20;99.90;;;;;;4968608;28;19913;-76
2023/04/20 04:18:05;;;;;;;;;;;6.30;99.90;;;;;;4977674;28;19999;-76
2023/04/20 04:20:31;;;;;;;;;;;6.50;99.90;;;;;;4970324;28;19964;-76
2023/04/20 04:23:00;;;;;;;;;;;6.60;99.90;;;;;;4976623;28;19999;-76
2023/04/20 04:25:27;;;;;;;;;;;6.60;99.90;;;;;;4967397;28;19988;-76
2023/04/20 04:27:56;;;;;;;;;;;6.70;99.90;;;;;;4977539;28;19917;-76
2023/04/20 04:30:28;;;;;;;;;;;6.60;99.90;;;;;;4987128;28;19932;-77
2023/04/20 04:32:56;;;;;;;;;;;6.80;99.90;;;;;;4975678;28;20004;-77
2023/04/20 04:35:24;;;;;;;;;;;6.80;99.90;;;;;;4969417;28;19906;-77
2023/04/20 04:37:54;;;;;;;;;;;6.90;99.90;;;;;;4985264;28;20363;-77
2023/04/20 04:40:19;;;;;;;;;;;7.00;99.90;;;;;;4969350;28;19905;-77
2023/04/20 04:42:47;;;;;;;;;;;7.10;99.90;;;;;;4996871;28;19920;-77
2023/04/20 04:45:14;;;;;;;;;;;7.10;99.90;;;;;;4984682;28;19975;-77
2023/04/20 04:47:51;;;;;;;;;;;7.10;99.90;;;;;;4971285;28;19910;-76
2023/04/20 04:50:18;;;;;;;;;;;7.10;99.90;;;;;;4969020;28;19918;-77
2023/04/20 04:52:46;;;;;;;;;;;6.90;99.90;;;;;;4989152;28;19906;-77
2023/04/20 04:55:12;;;;;;;;;;;6.90;99.90;;;;;;4968353;28;19906;-77
2023/04/20 04:57:39;;;;;;;;;;;7.10;99.90;;;;;;4972297;28;20351;-76
2023/04/20 05:00:11;;;;;;;;;;;7.20;99.90;;;;;;4964046;28;19913;-77
2023/04/20 05:02:38;;;;;;;;;;;7.30;99.90;;;;;;4972277;28;20280;-76
2023/04/20 05:05:03;;;;;;;;;;;7.40;99.90;;;;;;4981911;28;20745;-77
2023/04/20 05:07:41;;;;;;;;;;;7.50;99.90;;;;;;4984794;28;19913;-77
2023/04/20 05:10:10;;;;;;;;;;;7.50;99.90;;;;;;4968292;28;19941;-77
2023/04/20 05:12:36;;;;;;;;;;;7.60;99.90;;;;;;4983267;28;19905;-77
2023/04/20 05:15:02;;;;;;;;;;;7.60;99.90;;;;;;4964077;28;19921;-77
2023/04/20 05:17:30;;;;;;;;;;;7.60;99.90;;;;;;4965472;28;19906;-75
2023/04/20 05:19:55;;;;;;;;;;;7.70;99.90;;;;;;4965091;28;19913;-75
2023/04/20 05:22:22;;;;;;;;;;;7.60;99.90;;;;;;4968863;28;19910;-78
2023/04/20 05:24:47;;;;;;;;;;;7.60;99.90;;;;;;4985107;28;19967;-77
2023/04/20 05:27:21;;;;;;;;;;;7.80;99.90;;;;;;4983983;28;19906;-77
2023/04/20 05:29:47;;;;;;;;;;;8.00;99.90;;;;;;4986572;28;19917;-77
2023/04/20 05:32:13;;;;;;;;;;;7.80;99.90;;;;;;4982998;28;19941;-77
2023/04/20 05:34:40;;;;;;;;;;;7.70;99.90;;;;;;4984468;28;19960;-78
2023/04/20 05:37:08;;;;;;;;;;;7.70;99.90;;;;;;4970533;28;19929;-77
2023/04/20 05:39:34;;;;;;;;;;;7.80;99.90;;;;;;4969656;28;19906;-78
2023/04/20 05:42:02;;;;;;;;;;;7.80;99.90;;;;;;4982106;28;19917;-77
2023/04/20 05:44:32;;;;;;;;;;;7.80;99.90;;;;;;4982440;28;19912;-78
2023/04/20 05:46:59;;;;;;;;;;;7.80;99.90;;;;;;4989867;28;19905;-78
2023/04/20 05:49:26;;;;;;;;;;;7.80;99.90;;;;;;4969048;28;20004;-78
2023/04/20 05:51:51;;;;;;;;;;;7.90;99.90;;;;;;4988359;28;19910;-78
2023/04/20 05:54:27;;;;;;;;;;;8.00;99.90;;;;;;4966147;28;20675;-78
2023/04/20 05:56:54;;;;;;;;;;;8.00;99.90;;;;;;4989406;28;19932;-78
2023/04/20 05:59:24;;;;;;;;;;;8.00;99.90;;;;;;4967017;28;20475;-78
2023/04/20 06:01:53;;;;;;;;;;;8.10;99.90;;;;;;4986675;28;19920;-77
2023/04/20 06:04:29;;;;;;;;;;;8.30;99.90;;;;;;4987101;28;19925;-77
2023/04/20 06:07:09;;;;;;;;;;;8.40;99.90;;;;;;4963764;28;19910;-77
2023/04/20 06:09:35;;;;;;;;;;;8.50;99.90;;;;;;4986651;28;19906;-77
2023/04/20 06:12:03;;;;;;;;;;;8.30;99.90;;;;;;4968494;28;20413;-77
2023/04/20 06:14:29;;;;;;;;;;;8.10;99.90;;;;;;4985824;28;19913;-77
2023/04/20 06:16:54;;;;;;;;;;;8.10;99.90;;;;;;4960213;28;20385;-77
2023/04/20 06:19:20;;;;;;;;;;;8.00;99.90;;;;;;4967815;28;20405;-75
2023/04/20 06:21:45;;;;;;;;;;;7.90;99.90;;;;;;4964290;28;19968;-74
2023/04/20 06:24:12;;;;;;;;;;;7.90;99.90;;;;;;4964399;28;19964;-75
2023/04/20 06:26:40;;;;;;;;;;;7.80;99.90;;;;;;4969825;28;19960;-75
2023/04/20 06:29:05;;;;;;;;;;;8.00;99.90;;;;;;4985603;28;20370;-75
2023/04/20 06:31:34;;;;;;;;;;;8.10;99.90;;;;;;4970495;28;19913;-75
2023/04/20 06:34:00;;;;;;;;;;;8.20;99.90;;;;;;4983598;28;20010;-74
2023/04/20 06:36:27;;;;;;;;;;;8.20;99.90;;;;;;4985857;28;19941;-73
2023/04/20 06:38:54;;;;;;;;;;;8.10;99.90;;;;;;4982808;28;19973;-74
2023/04/20 06:41:21;;;;;;;;;;;8.10;99.90;;;;;;4981965;28;20449;-74
2023/04/20 06:43:46;;;;;;;;;;;8.50;99.90;;;;;;4967484;28;19919;-76
2023/04/20 06:46:12;;;;;;;;;;;8.70;99.90;;;;;;4981833;28;19909;-74
2023/04/20 06:48:37;;;;;;;;;;;8.60;99.90;;;;;;4972597;28;19947;-74
2023/04/20 06:51:03;;;;;;;;;;;8.70;99.90;;;;;;4976936;28;19914;-75
2023/04/20 06:53:29;;;;;;;;;;;8.50;99.90;;;;;;4983781;28;19905;-74
2023/04/20 06:55:54;;;;;;;;;;;8.70;99.90;;;;;;4989944;28;19906;-75
2023/04/20 06:58:20;;;;;;;;;;;9.10;99.90;;;;;;4984396;28;20088;-75
2023/04/20 07:00:51;;;;;;;;;;;9.20;99.90;;;;;;4969583;28;20055;-76
2023/04/20 07:03:17;;;;;;;;;;;9.40;99.90;;;;;;4988315;28;19920;-76
2023/04/20 07:05:44;;;;;;;;;;;9.80;99.90;;;;;;4990785;28;19906;-75
2023/04/20 07:08:10;;;;;;;;;;;9.90;99.90;;;;;;4985906;28;20142;-75
2023/04/20 07:10:37;;;;;;;;;;;9.70;99.90;;;;;;4968420;28;19957;-74
2023/04/20 07:13:05;;;;;;;;;;;9.70;99.90;;;;;;4988885;28;19996;-74
2023/04/20 07:15:30;;;;;;;;;;;9.70;99.90;;;;;;4965694;28;20390;-75
2023/04/20 07:17:57;;;;;;;;;;;9.80;99.90;;;;;;4983680;28;19910;-74
2023/04/20 07:20:22;;;;;;;;;;;9.70;99.90;;;;;;4986815;28;20369;-75
2023/04/20 07:22:51;;;;;;;;;;;9.30;99.90;;;;;;4969508;28;19914;-75
2023/04/20 07:25:19;;;;;;;;;;;9.40;99.90;;;;;;4986234;28;19913;-75
2023/04/20 07:27:44;;;;;;;;;;;9.70;99.90;;;;;;4966383;28;19913;-75
2023/04/20 07:30:10;;;;;;;;;;;10.20;99.90;;;;;;4973024;28;20322;-74
2023/04/20 07:32:37;;;;;;;;;;;10.40;99.90;;;;;;4968987;28;19967;-75
2023/04/20 07:35:04;;;;;;;;;;;10.60;99.90;;;;;;4966149;28;19913;-76
2023/04/20 07:37:30;;;;;;;;;;;10.80;99.90;;;;;;4982870;28;19933;-75
2023/04/20 07:39:59;;;;;;;;;;;11.20;99.90;;;;;;4976713;28;20682;-74
2023/04/20 07:42:36;;;;;;;;;;;11.90;99.90;;;;;;4987851;28;20602;-74
2023/04/20 07:45:09;;;;;;;;;;;12.10;99.90;;;;;;4965062;28;19952;-75
2023/04/20 07:47:36;;;;;;;;;;;12.90;99.90;;;;;;4984012;28;20476;-76
2023/04/20 07:50:05;;;;;;;;;;;13.80;99.90;;;;;;4984748;28;19937;-75
2023/04/20 07:52:36;;;;;;;;;;;14.20;99.90;;;;;;4986860;28;19905;-75
2023/04/20 07:55:01;;;;;;;;;;;14.40;99.90;;;;;;4990112;28;19910;-77
2023/04/20 07:57:36;;;;;;;;;;;14.20;99.90;;;;;;4983625;28;19919;-75
2023/04/20 08:00:06;;;;;;;;;;;12.70;99.90;;;;;;4972810;28;19916;-75
2023/04/20 08:02:32;;;;;;;;;;;12.50;99.90;;;;;;4970131;28;19980;-75
2023/04/20 08:05:00;;;;;;;;;;;12.80;99.90;;;;;;4969221;28;19996;-75
2023/04/20 08:07:40;;;;;;;;;;;12.90;99.90;;;;;;4987985;28;19937;-76
2023/04/20 08:10:06;;;;;;;;;;;12.70;99.90;;;;;;4968982;28;19913;-75
2023/04/20 08:12:33;;;;;;;;;;;12.70;99.90;;;;;;4987074;28;19960;-75
2023/04/20 08:15:05;;;;;;;;;;;13.00;99.90;;;;;;4970087;28;20033;-75
2023/04/20 08:17:31;;;;;;;;;;;13.80;99.90;;;;;;4983003;28;19920;-75
2023/04/20 08:19:56;;;;;;;;;;;13.20;99.90;;;;;;4966001;28;19910;-75
2023/04/20 08:22:28;;;;;;;;;;;12.30;99.90;;;;;;4966431;28;19909;-75
2023/04/20 08:24:56;;;;;;;;;;;12.60;99.90;;;;;;4990259;28;19906;-76
2023/04/20 08:27:22;;;;;;;;;;;13.50;99.90;;;;;;4990771;28;20363;-75
2023/04/20 08:29:50;;;;;;;;;;;14.20;99.90;;;;;;4986364;28;19949;-75
2023/04/20 08:32:21;;;;;;;;;;;15.00;99.90;;;;;;4986266;28;20673;-76
2023/04/20 08:34:48;;;;;;;;;;;15.50;99.90;;;;;;4964677;28;19953;-75
2023/04/20 08:37:20;;;;;;;;;;;16.10;99.90;;;;;;4985913;28;19906;-75
2023/04/20 08:39:48;;;;;;;;;;;16.40;99.30;;;;;;4964939;28;19933;-75
2023/04/20 08:42:16;;;;;;;;;;;16.70;99.20;;;;;;4985244;28;19912;-75
2023/04/20 08:44:43;;;;;;;;;;;17.80;97.40;;;;;;4989187;28;19932;-75
2023/04/20 08:47:10;;;;;;;;;;;19.00;95.20;;;;;;4968880;28;20016;-75
2023/04/20 08:49:38;;;;;;;;;;;20.00;91.00;;;;;;4973367;28;19940;-75
2023/04/20 08:52:10;;;;;;;;;;;19.30;89.90;;;;;;4986125;28;19937;-75
2023/04/20 08:54:37;;;;;;;;;;;17.20;92.80;;;;;;4988598;28;20127;-75
2023/04/20 08:57:02;;;;;;;;;;;17.40;94.40;;;;;;4981382;28;20130;-75
2023/04/20 08:59:29;;;;;;;;;;;17.80;93.80;;;;;;4971159;28;19917;-76
2023/04/20 09:02:06;;;;;;;;;;;19.30;91.90;;;;;;4965921;28;19949;-75
2023/04/20 09:04:35;;;;;;;;;;;19.00;90.60;;;;;;4986885;28;19913;-75
2023/04/20 09:07:01;;;;;;;;;;;20.20;90.50;;;;;;4964476;28;19910;-75
2023/04/20 09:09:29;;;;;;;;;;;22.10;78.70;;;;;;4983184;28;19941;-76
2023/04/20 09:12:02;;;;;;;;;;;22.10;81.40;;;;;;4986084;28;20425;-76
2023/04/20 09:14:27;;;;;;;;;;;23.60;73.70;;;;;;4981912;28;19921;-75
2023/04/20 09:17:04;;;;;;;;;;;25.20;66.10;;;;;;4983524;28;19905;-76
2023/04/20 09:19:30;;;;;;;;;;;25.00;64.10;;;;;;4982975;28;19917;-76
2023/04/20 09:22:02;;;;;;;;;;;25.50;62.10;;;;;;4986562;28;20313;-73
2023/04/20 09:24:32;;;;;;;;;;;26.30;61.80;;;;;;4984981;28;19912;-75
2023/04/20 09:26:58;;;;;;;;;;;28.50;57.70;;;;;;4982335;28;20244;-73
2023/04/20 09:29:26;;;;;;;;;;;27.20;56.20;;;;;;4986426;28;19917;-75
2023/04/20 09:31:53;;;;;;;;;;;27.90;56.90;;;;;;4986344;28;19910;-72
2023/04/20 09:34:19;;;;;;;;;;;27.00;55.90;;;;;;4973991;28;19913;-74
2023/04/20 09:36:46;;;;;;;;;;;27.50;57.00;;;;;;4984571;28;19913;-74
2023/04/20 09:39:13;;;;;;;;;;;26.30;56.20;;;;;;4972157;28;19906;-75
2023/04/20 09:41:40;;;;;;;;;;;25.30;56.60;;;;;;4966852;28;20370;-75
2023/04/20 09:44:07;;;;;;;;;;;25.90;58.50;;;;;;4968132;28;20359;-73
2023/04/20 09:46:34;;;;;;;;;;;26.20;56.10;;;;;;4965275;28;19910;-75
2023/04/20 09:49:00;;;;;;;;;;;25.90;57.60;;;;;;4967875;28;19905;-75
2023/04/20 09:51:27;;;;;;;;;;;27.30;56.60;;;;;;4985012;28;19920;-75
2023/04/20 09:53:56;;;;;;;;;;;27.20;55.60;;;;;;4985002;28;19913;-75
2023/04/20 09:56:24;;;;;;;;;;;28.10;55.20;;;;;;4967511;28;19906;-75
2023/04/20 09:58:53;;;;;;;;;;;29.30;52.90;;;;;;4984945;28;19910;-73
2023/04/20 10:01:28;;;;;;;;;;;29.00;51.50;;;;;;4981483;28;19914;-76
2023/04/20 10:03:54;;;;;;;;;;;26.40;54.80;;;;;;4988511;28;19917;-75
2023/04/20 10:06:25;;;;;;;;;;;26.90;54.30;;;;;;4982015;28;19913;-75
2023/04/20 10:08:52;;;;;;;;;;;27.80;53.80;;;;;;4984047;28;20283;-75
2023/04/20 10:11:27;;;;;;;;;;;26.30;54.80;;;;;;4963576;28;19917;-75
2023/04/20 10:13:54;;;;;;;;;;;27.10;55.00;;;;;;4982826;28;19909;-75
2023/04/20 10:16:22;;;;;;;;;;;27.80;53.40;;;;;;4966098;28;19921;-75
2023/04/20 10:19:02;;;;;;;;;;;27.40;54.30;;;;;;4982227;28;20425;-74
2023/04/20 10:21:55;;;;;;;;;;;25.30;54.10;;;;;;4985217;28;20014;-76
2023/04/20 10:24:31;;;;;;;;;;;23.70;58.50;;;;;;4984150;28;20027;-77
2023/04/20 10:27:04;;;;;;;;;;;24.60;59.60;;;;;;4985045;28;19917;-76
2023/04/20 10:29:30;;;;;;;;;;;24.50;57.80;;;;;;4963452;28;19906;-77
2023/04/20 10:31:59;;;;;;;;;;;23.80;59.50;;;;;;4961268;28;19906;-77
2023/04/20 10:34:31;;;;;;;;;;;22.60;60.20;;;;;;4977366;28;19916;-77
2023/04/20 10:37:12;;;;;;;;;;;21.70;63.60;;;;;;4967724;28;19964;-76
2023/04/20 10:39:49;;;;;;;;;;;22.10;64.60;;;;;;4982247;28;19963;-76
2023/04/20 10:42:19;;;;;;;;;;;22.10;62.30;;;;;;4968616;28;19951;-76
2023/04/20 10:44:51;;;;;;;;;;;21.40;64.40;;;;;;4986059;28;19906;-76
2023/04/20 10:47:17;;;;;;;;;;;22.70;63.10;;;;;;4988433;28;19913;-76
2023/04/20 10:49:44;;;;;;;;;;;23.80;60.90;;;;;;4991198;28;19906;-75
2023/04/20 10:52:10;;;;;;;;;;;24.40;60.30;;;;;;4966918;28;19909;-73
2023/04/20 10:54:37;;;;;;;;;;;25.50;59.10;;;;;;4970111;28;19913;-73
2023/04/20 10:57:03;;;;;;;;;;;25.60;59.00;;;;;;4984667;28;19910;-75
2023/04/20 10:59:30;;;;;;;;;;;24.00;59.60;;;;;;4988625;28;20387;-76
2023/04/20 11:02:00;;;;;;;;;;;21.70;62.70;;;;;;4971413;28;19955;-72
2023/04/20 11:04:34;;;;;;;;;;;20.60;65.00;;;;;;4989453;28;19906;-76
2023/04/20 11:07:09;;;;;;;;;;;19.80;66.60;;;;;;4967854;28;19945;-76
2023/04/20 11:09:41;;;;;;;;;;;19.60;69.80;;;;;;4993200;28;19905;-76
2023/04/20 11:12:13;;;;;;;;;;;18.80;69.00;;;;;;4984740;28;19971;-76
2023/04/20 11:14:49;;;;;;;;;;;18.50;71.10;;;;;;4985456;28;19941;-76
2023/04/20 11:17:15;;;;;;;;;;;18.30;71.80;;;;;;4987812;28;19917;-76
2023/04/20 11:19:43;;;;;;;;;;;18.70;73.70;;;;;;4970399;28;19913;-76
2023/04/20 11:22:19;;;;;;;;;;;18.20;74.90;;;;;;4984618;28;19912;-76
2023/04/20 11:24:48;;;;;;;;;;;18.30;76.00;;;;;;4970231;28;19913;-76
2023/04/20 11:27:21;;;;;;;;;;;18.40;75.60;;;;;;4966182;28;19910;-76
2023/04/20 11:29:54;;;;;;;;;;;17.30;76.50;;;;;;4991274;28;19941;-76
2023/04/20 11:32:20;;;;;;;;;;;17.40;80.90;;;;;;4985070;28;20394;-77
2023/04/20 11:34:45;;;;;;;;;;;18.00;79.40;;;;;;4971503;28;19921;-76
2023/04/20 11:37:12;;;;;;;;;;;18.20;79.40;;;;;;4985712;28;19905;-76
2023/04/20 11:39:40;;;;;;;;;;;17.60;79.30;;;;;;4972067;28;20262;-76
2023/04/20 11:42:05;;;;;;;;;;;17.10;81.30;;;;;;4991280;28;20423;-76
2023/04/20 11:44:31;;;;;;;;;;;17.70;81.50;;;;;;4984548;28;19977;-76
2023/04/20 11:47:00;;;;;;;;;;;17.90;80.70;;;;;;4966513;28;19945;-76
2023/04/20 11:49:27;;;;;;;;;;;17.40;79.80;;;;;;4984958;28;19912;-76
2023/04/20 11:51:53;;;;;;;;;;;17.00;83.10;;;;;;4970638;28;20668;-76
2023/04/20 11:54:19;;;;;;;;;;;17.40;84.50;;;;;;4969491;28;19918;-76
2023/04/20 11:56:47;;;;;;;;;;;17.80;82.70;;;;;;4985424;28;19917;-77
2023/04/20 11:59:19;;;;;;;;;;;18.00;83.60;;;;;;4987908;28;19932;-77
2023/04/20 12:01:48;;;;;;;;;;;18.30;82.60;;;;;;4966361;28;20048;-77
2023/04/20 12:04:14;;;;;;;;;;;17.70;83.90;;;;;;4989235;28;19913;-76
2023/04/20 12:06:41;;;;;;;;;;;17.70;84.30;;;;;;4983966;28;20516;-74
2023/04/20 12:09:07;;;;;;;;;;;17.00;86.30;;;;;;4972443;28;20436;-77
2023/04/20 12:11:36;;;;;;;;;;;17.50;87.40;;;;;;4964690;28;20000;-76
2023/04/20 12:14:03;;;;;;;;;;;17.80;86.70;;;;;;4970089;28;19906;-77
2023/04/20 12:16:28;;;;;;;;;;;17.90;87.00;;;;;;4970463;28;20352;-76
2023/04/20 12:18:55;;;;;;;;;;;17.70;87.70;;;;;;4966947;28;19913;-76
2023/04/20 12:21:22;;;;;;;;;;;17.40;89.20;;;;;;4965991;28;19906;-77
2023/04/20 12:23:49;;;;;;;;;;;17.80;90.00;;;;;;4982683;28;19917;-76
2023/04/20 12:26:15;;;;;;;;;;;17.80;85.50;;;;;;4986981;28;19909;-76
2023/04/20 12:28:41;;;;;;;;;;;17.80;85.70;;;;;;4968862;28;19930;-75
2023/04/20 12:34:09;;;;;;;;;;;18.10;87.70;;;;;;5292205;23;20417;-68
2023/04/20 12:36:35;;;;;;;;;;;17.60;86.70;;;;;;5022352;28;19909;-68
2023/04/20 12:39:01;;;;;;;;;;;17.10;89.10;;;;;;5017277;28;19911;-68
2023/04/20 12:41:26;;;;;;;;;;;17.10;89.80;;;;;;5016967;28;19909;-68
2023/04/20 12:43:52;;;;;;;;;;;17.10;90.70;;;;;;5012957;28;19944;-68
2023/04/20 12:46:17;;;;;;;;;;;17.60;90.40;;;;;;5016771;28;19919;-68
2023/04/20 12:48:46;;;;;;;;;;;18.00;89.10;;;;;;5011999;28;19991;-69
2023/04/20 12:51:11;;;;;;;;;;;18.10;89.20;;;;;;5017625;28;19913;-69
2023/04/20 12:53:37;;;;;;;;;;;18.40;87.50;;;;;;5015141;28;19916;-68
2023/04/20 12:56:03;;;;;;;;;;;19.00;87.60;;;;;;5016905;28;19982;-69
2023/04/20 12:58:29;;;;;;;;;;;19.20;85.60;;;;;;5012678;28;19994;-69
2023/04/20 13:00:56;;;;;;;;;;;18.60;85.00;;;;;;5020814;28;19909;-74
2023/04/20 13:03:22;;;;;;;;;;;17.80;87.70;;;;;;4997447;28;20699;-75
2023/04/20 13:05:48;;;;;;;;;;;17.60;89.40;;;;;;5000842;28;20000;-74
2023/04/20 13:08:14;;;;;;;;;;;17.50;87.00;;;;;;5001987;28;19944;-75
2023/04/20 13:10:42;;;;;;;;;;;17.20;90.70;;;;;;5009070;28;20534;-75
2023/04/20 13:13:09;;;;;;;;;;;16.80;91.70;;;;;;4985999;28;20043;-75
2023/04/20 13:15:40;;;;;;;;;;;16.90;92.30;;;;;;4997130;28;20002;-75
2023/04/20 13:18:08;;;;;;;;;;;16.90;93.40;;;;;;5017745;28;19905;-75
2023/04/20 13:20:35;;;;;;;;;;;17.10;92.60;;;;;;5001425;28;20502;-75
2023/04/20 13:23:03;;;;;;;;;;;17.30;92.30;;;;;;5001451;28;19928;-75
2023/04/20 13:25:32;;;;;;;;;;;17.10;92.50;;;;;;4986952;28;19952;-76
2023/04/20 13:27:58;;;;;;;;;;;17.40;93.00;;;;;;4998850;28;19916;-75
2023/04/20 13:30:25;;;;;;;;;;;17.40;92.00;;;;;;5000247;28;19913;-76
2023/04/20 13:32:51;;;;;;;;;;;17.40;92.10;;;;;;5001941;28;19913;-77
2023/04/20 13:35:18;;;;;;;;;;;17.50;91.60;;;;;;5005287;28;21388;-76
2023/04/20 13:37:43;;;;;;;;;;;17.50;91.70;;;;;;4984132;28;19909;-76
2023/04/20 13:40:09;;;;;;;;;;;17.70;91.50;;;;;;4999307;28;19905;-76
2023/04/20 13:42:35;;;;;;;;;;;17.90;90.90;;;;;;5003277;28;19905;-77
2023/04/20 13:45:00;;;;;;;;;;;18.10;90.50;;;;;;4985375;28;19975;-76
2023/04/20 13:47:33;;;;;;;;;;;17.60;90.60;;;;;;4983917;28;19913;-77
2023/04/20 13:50:02;;;;;;;;;;;17.60;90.90;;;;;;4996311;28;19996;-76
2023/04/20 13:52:29;;;;;;;;;;;18.10;91.00;;;;;;4982940;28;19913;-78
2023/04/20 13:54:54;;;;;;;;;;;18.00;90.70;;;;;;4994280;28;19969;-75
2023/04/20 13:57:20;;;;;;;;;;;18.00;90.90;;;;;;4995412;28;19909;-77
2023/04/20 14:00:04;;;;;;;;;;;18.30;90.60;;;;;;5003752;28;20461;-75
2023/04/20 14:02:35;;;;;;;;;;;18.10;90.70;;;;;;4992829;28;20394;-76
2023/04/20 14:05:02;;;;;;;;;;;18.10;91.10;;;;;;5003273;28;19909;-74
2023/04/20 14:07:32;;;;;;;;;;;17.80;91.40;;;;;;4981693;28;20268;-76
2023/04/20 14:10:05;;;;;;;;;;;17.60;91.80;;;;;;4983846;28;20374;-75
2023/04/20 14:12:33;;;;;;;;;;;17.30;92.20;;;;;;4981891;28;19913;-76
2023/04/20 14:14:58;;;;;;;;;;;17.20;92.90;;;;;;5002819;28;19906;-75
2023/04/20 14:17:26;;;;;;;;;;;17.20;93.10;;;;;;4982034;28;19981;-76
2023/04/20 14:19:52;;;;;;;;;;;17.40;92.80;;;;;;4999121;28;19915;-77
2023/04/20 14:22:20;;;;;;;;;;;17.60;92.50;;;;;;4999355;28;19914;-76
2023/04/20 14:24:47;;;;;;;;;;;17.60;92.70;;;;;;5001169;28;19936;-76
2023/04/20 14:27:12;;;;;;;;;;;17.60;93.10;;;;;;4998084;28;20040;-75
2023/04/20 14:29:38;;;;;;;;;;;17.40;93.40;;;;;;4981543;28;20005;-76
2023/04/20 14:32:04;;;;;;;;;;;17.20;92.90;;;;;;4998459;28;19913;-75